sensor_id;sensor_type;location;lat;lon;timestamp;P1;durP1;ratioP1;P2;durP2;ratioP2
4986;SDS011;12674;51.500;7.552;2023-05-19T00:01:35;10.03;;;4.27;;
4986;SDS011;12674;51.500;7.552;2023-05-19T00:03:48;6.80;;;3.77;;
4986;SDS011;12674;51.500;7.552;2023-05-19T00:05:54;7.67;;;3.50;;
4986;SDS011;12674;51.500;7.552;2023-05-19T00:08:00;13.97;;;3.43;;
4986;SDS011;12674;51.500;7.552;2023-05-19T00:10:04;10.10;;;4.23;;
4986;SDS011;12674;51.500;7.552;2023-05-19T00:12:08;6.73;;;3.70;;
4986;SDS011;12674;51.500;7.552;2023-05-19T00:14:12;9.00;;;3.60;;
4986;SDS011;12674;51.500;7.552;2023-05-19T00:16:16;8.10;;;3.60;;
4986;SDS011;12674;51.500;7.552;2023-05-19T00:18:19;10.50;;;3.83;;
4986;SDS011;12674;51.500;7.552;2023-05-19T00:20:25;6.47;;;3.30;;
4986;SDS011;12674;51.500;7.552;2023-05-19T00:22:28;3.97;;;2.77;;
4986;SDS011;12674;51.500;7.552;2023-05-19T00:24:31;14.27;;;4.10;;
4986;SDS011;12674;51.500;7.552;2023-05-19T00:26:34;12.93;;;3.93;;
4986;SDS011;12674;51.500;7.552;2023-05-19T00:28:38;6.77;;;3.50;;
4986;SDS011;12674;51.500;7.552;2023-05-19T00:30:41;8.47;;;3.97;;
4986;SDS011;12674;51.500;7.552;2023-05-19T00:32:44;10.43;;;3.90;;
4986;SDS011;12674;51.500;7.552;2023-05-19T00:34:47;10.70;;;4.10;;
4986;SDS011;12674;51.500;7.552;2023-05-19T00:36:52;6.03;;;3.30;;
4986;SDS011;12674;51.500;7.552;2023-05-19T00:38:55;6.20;;;3.67;;
4986;SDS011;12674;51.500;7.552;2023-05-19T00:40:58;10.43;;;3.53;;
4986;SDS011;12674;51.500;7.552;2023-05-19T00:43:01;6.67;;;3.80;;
4986;SDS011;12674;51.500;7.552;2023-05-19T00:45:06;9.27;;;4.20;;
4986;SDS011;12674;51.500;7.552;2023-05-19T00:47:11;7.47;;;4.40;;
4986;SDS011;12674;51.500;7.552;2023-05-19T00:49:14;8.43;;;4.10;;
4986;SDS011;12674;51.500;7.552;2023-05-19T00:51:17;7.67;;;3.80;;
4986;SDS011;12674;51.500;7.552;2023-05-19T00:53:22;9.50;;;5.20;;
4986;SDS011;12674;51.500;7.552;2023-05-19T00:55:27;9.20;;;4.33;;
4986;SDS011;12674;51.500;7.552;2023-05-19T00:57:31;9.23;;;4.23;;
4986;SDS011;12674;51.500;7.552;2023-05-19T00:59:36;7.90;;;3.67;;
4986;SDS011;12674;51.500;7.552;2023-05-19T01:01:39;17.23;;;5.13;;
4986;SDS011;12674;51.500;7.552;2023-05-19T01:03:44;5.20;;;4.10;;
4986;SDS011;12674;51.500;7.552;2023-05-19T01:05:50;7.80;;;4.17;;
4986;SDS011;12674;51.500;7.552;2023-05-19T01:07:54;11.03;;;4.00;;
4986;SDS011;12674;51.500;7.552;2023-05-19T01:10:01;7.23;;;4.13;;
4986;SDS011;12674;51.500;7.552;2023-05-19T01:12:05;9.40;;;4.10;;
4986;SDS011;12674;51.500;7.552;2023-05-19T01:14:11;7.80;;;4.40;;
4986;SDS011;12674;51.500;7.552;2023-05-19T01:16:16;10.57;;;5.07;;
4986;SDS011;12674;51.500;7.552;2023-05-19T01:18:28;8.60;;;3.70;;
4986;SDS011;12674;51.500;7.552;2023-05-19T01:20:36;21.20;;;5.23;;
4986;SDS011;12674;51.500;7.552;2023-05-19T01:22:47;5.83;;;3.90;;
4986;SDS011;12674;51.500;7.552;2023-05-19T01:25:18;17.03;;;4.17;;
4986;SDS011;12674;51.500;7.552;2023-05-19T01:27:52;10.73;;;4.10;;
4986;SDS011;12674;51.500;7.552;2023-05-19T01:32:36;6.90;;;3.70;;
4986;SDS011;12674;51.500;7.552;2023-05-19T01:34:43;16.20;;;5.27;;
4986;SDS011;12674;51.500;7.552;2023-05-19T01:36:49;16.03;;;5.10;;
4986;SDS011;12674;51.500;7.552;2023-05-19T01:38:57;12.07;;;4.03;;
4986;SDS011;12674;51.500;7.552;2023-05-19T01:41:01;8.50;;;3.70;;
4986;SDS011;12674;51.500;7.552;2023-05-19T01:43:06;9.43;;;4.20;;
4986;SDS011;12674;51.500;7.552;2023-05-19T01:45:10;9.70;;;4.33;;
4986;SDS011;12674;51.500;7.552;2023-05-19T01:47:16;10.00;;;4.43;;
4986;SDS011;12674;51.500;7.552;2023-05-19T01:49:21;7.10;;;3.53;;
4986;SDS011;12674;51.500;7.552;2023-05-19T01:51:24;11.83;;;4.23;;
4986;SDS011;12674;51.500;7.552;2023-05-19T01:53:28;8.37;;;3.50;;
4986;SDS011;12674;51.500;7.552;2023-05-19T01:55:31;12.23;;;4.23;;
4986;SDS011;12674;51.500;7.552;2023-05-19T01:57:42;15.83;;;4.40;;
4986;SDS011;12674;51.500;7.552;2023-05-19T01:59:56;6.37;;;3.70;;
4986;SDS011;12674;51.500;7.552;2023-05-19T02:02:15;8.17;;;4.40;;
4986;SDS011;12674;51.500;7.552;2023-05-19T02:04:28;10.23;;;4.10;;
4986;SDS011;12674;51.500;7.552;2023-05-19T02:06:43;5.20;;;3.97;;
4986;SDS011;12674;51.500;7.552;2023-05-19T02:08:56;8.43;;;3.90;;
4986;SDS011;12674;51.500;7.552;2023-05-19T02:11:02;9.67;;;4.30;;
4986;SDS011;12674;51.500;7.552;2023-05-19T02:13:09;8.57;;;4.23;;
4986;SDS011;12674;51.500;7.552;2023-05-19T02:15:13;12.33;;;4.73;;
4986;SDS011;12674;51.500;7.552;2023-05-19T02:17:18;14.50;;;4.60;;
4986;SDS011;12674;51.500;7.552;2023-05-19T02:19:24;19.80;;;5.00;;
4986;SDS011;12674;51.500;7.552;2023-05-19T02:21:29;7.30;;;4.40;;
4986;SDS011;12674;51.500;7.552;2023-05-19T02:23:33;10.20;;;4.83;;
4986;SDS011;12674;51.500;7.552;2023-05-19T02:25:36;9.90;;;4.60;;
4986;SDS011;12674;51.500;7.552;2023-05-19T02:27:40;9.77;;;4.07;;
4986;SDS011;12674;51.500;7.552;2023-05-19T02:29:46;9.30;;;4.60;;
4986;SDS011;12674;51.500;7.552;2023-05-19T02:31:49;10.43;;;4.83;;
4986;SDS011;12674;51.500;7.552;2023-05-19T02:33:52;6.47;;;3.80;;
4986;SDS011;12674;51.500;7.552;2023-05-19T02:35:58;9.80;;;4.20;;
4986;SDS011;12674;51.500;7.552;2023-05-19T02:38:02;10.33;;;4.40;;
4986;SDS011;12674;51.500;7.552;2023-05-19T02:40:06;10.53;;;4.73;;
4986;SDS011;12674;51.500;7.552;2023-05-19T02:42:12;11.43;;;4.33;;
4986;SDS011;12674;51.500;7.552;2023-05-19T02:44:18;5.97;;;3.90;;
4986;SDS011;12674;51.500;7.552;2023-05-19T02:46:22;8.47;;;4.60;;
4986;SDS011;12674;51.500;7.552;2023-05-19T02:48:26;8.93;;;4.80;;
4986;SDS011;12674;51.500;7.552;2023-05-19T02:50:31;6.50;;;4.33;;
4986;SDS011;12674;51.500;7.552;2023-05-19T02:52:36;11.60;;;4.73;;
4986;SDS011;12674;51.500;7.552;2023-05-19T02:57:55;14.07;;;5.30;;
4986;SDS011;12674;51.500;7.552;2023-05-19T02:59:58;8.13;;;5.20;;
4986;SDS011;12674;51.500;7.552;2023-05-19T03:02:02;7.63;;;4.83;;
4986;SDS011;12674;51.500;7.552;2023-05-19T03:04:05;8.93;;;5.00;;
4986;SDS011;12674;51.500;7.552;2023-05-19T03:06:08;11.20;;;4.10;;
4986;SDS011;12674;51.500;7.552;2023-05-19T03:08:13;15.53;;;5.10;;
4986;SDS011;12674;51.500;7.552;2023-05-19T03:10:16;8.87;;;4.50;;
4986;SDS011;12674;51.500;7.552;2023-05-19T03:12:19;8.73;;;4.20;;
4986;SDS011;12674;51.500;7.552;2023-05-19T03:14:22;12.23;;;5.00;;
4986;SDS011;12674;51.500;7.552;2023-05-19T03:16:25;7.37;;;4.20;;
4986;SDS011;12674;51.500;7.552;2023-05-19T03:18:29;12.83;;;5.00;;
4986;SDS011;12674;51.500;7.552;2023-05-19T03:20:32;16.03;;;5.40;;
4986;SDS011;12674;51.500;7.552;2023-05-19T03:22:35;17.00;;;4.70;;
4986;SDS011;12674;51.500;7.552;2023-05-19T03:24:39;8.83;;;4.40;;
4986;SDS011;12674;51.500;7.552;2023-05-19T03:26:43;13.90;;;4.93;;
4986;SDS011;12674;51.500;7.552;2023-05-19T03:28:47;12.00;;;4.30;;
4986;SDS011;12674;51.500;7.552;2023-05-19T03:30:50;8.80;;;5.10;;
4986;SDS011;12674;51.500;7.552;2023-05-19T03:32:57;21.57;;;4.87;;
4986;SDS011;12674;51.500;7.552;2023-05-19T03:35:02;12.80;;;4.73;;
4986;SDS011;12674;51.500;7.552;2023-05-19T03:37:06;11.50;;;4.83;;
4986;SDS011;12674;51.500;7.552;2023-05-19T03:39:11;7.53;;;4.67;;
4986;SDS011;12674;51.500;7.552;2023-05-19T03:41:16;8.50;;;4.70;;
4986;SDS011;12674;51.500;7.552;2023-05-19T03:43:19;12.13;;;5.43;;
4986;SDS011;12674;51.500;7.552;2023-05-19T03:45:28;11.10;;;4.70;;
4986;SDS011;12674;51.500;7.552;2023-05-19T03:47:33;5.13;;;4.33;;
4986;SDS011;12674;51.500;7.552;2023-05-19T03:49:56;8.67;;;4.80;;
4986;SDS011;12674;51.500;7.552;2023-05-19T03:52:17;13.70;;;5.00;;
4986;SDS011;12674;51.500;7.552;2023-05-19T03:54:28;6.10;;;4.13;;
4986;SDS011;12674;51.500;7.552;2023-05-19T03:56:36;9.17;;;4.90;;
4986;SDS011;12674;51.500;7.552;2023-05-19T03:58:41;16.67;;;4.63;;
4986;SDS011;12674;51.500;7.552;2023-05-19T04:00:45;12.07;;;4.73;;
4986;SDS011;12674;51.500;7.552;2023-05-19T04:02:48;7.57;;;5.00;;
4986;SDS011;12674;51.500;7.552;2023-05-19T04:04:51;13.83;;;5.00;;
4986;SDS011;12674;51.500;7.552;2023-05-19T04:06:54;9.50;;;4.57;;
4986;SDS011;12674;51.500;7.552;2023-05-19T04:08:58;9.97;;;4.70;;
4986;SDS011;12674;51.500;7.552;2023-05-19T04:11:01;7.70;;;4.20;;
4986;SDS011;12674;51.500;7.552;2023-05-19T04:13:07;8.13;;;4.67;;
4986;SDS011;12674;51.500;7.552;2023-05-19T04:15:12;11.10;;;5.60;;
4986;SDS011;12674;51.500;7.552;2023-05-19T04:17:17;9.80;;;4.87;;
4986;SDS011;12674;51.500;7.552;2023-05-19T04:19:22;7.43;;;4.70;;
4986;SDS011;12674;51.500;7.552;2023-05-19T04:21:28;15.20;;;5.73;;
4986;SDS011;12674;51.500;7.552;2023-05-19T04:23:32;8.03;;;4.70;;
4986;SDS011;12674;51.500;7.552;2023-05-19T04:25:38;12.20;;;5.30;;
4986;SDS011;12674;51.500;7.552;2023-05-19T04:27:45;15.80;;;5.10;;
4986;SDS011;12674;51.500;7.552;2023-05-19T04:30:00;8.73;;;4.50;;
4986;SDS011;12674;51.500;7.552;2023-05-19T04:32:05;11.07;;;5.00;;
4986;SDS011;12674;51.500;7.552;2023-05-19T04:34:10;10.83;;;4.67;;
4986;SDS011;12674;51.500;7.552;2023-05-19T04:36:13;16.07;;;4.63;;
4986;SDS011;12674;51.500;7.552;2023-05-19T04:38:22;10.13;;;5.07;;
4986;SDS011;12674;51.500;7.552;2023-05-19T04:40:25;12.60;;;5.60;;
4986;SDS011;12674;51.500;7.552;2023-05-19T04:42:32;7.73;;;4.00;;
4986;SDS011;12674;51.500;7.552;2023-05-19T04:44:40;5.50;;;4.03;;
4986;SDS011;12674;51.500;7.552;2023-05-19T04:46:48;6.47;;;3.90;;
4986;SDS011;12674;51.500;7.552;2023-05-19T04:48:56;7.13;;;4.53;;
4986;SDS011;12674;51.500;7.552;2023-05-19T04:51:04;9.03;;;4.80;;
4986;SDS011;12674;51.500;7.552;2023-05-19T04:53:09;10.30;;;5.07;;
4986;SDS011;12674;51.500;7.552;2023-05-19T04:55:15;7.70;;;4.60;;
4986;SDS011;12674;51.500;7.552;2023-05-19T04:57:19;14.97;;;5.40;;
4986;SDS011;12674;51.500;7.552;2023-05-19T04:59:29;12.27;;;5.73;;
4986;SDS011;12674;51.500;7.552;2023-05-19T05:01:34;9.70;;;5.40;;
4986;SDS011;12674;51.500;7.552;2023-05-19T05:03:44;11.10;;;4.73;;
4986;SDS011;12674;51.500;7.552;2023-05-19T05:05:49;10.57;;;4.60;;
4986;SDS011;12674;51.500;7.552;2023-05-19T05:07:56;12.00;;;5.20;;
4986;SDS011;12674;51.500;7.552;2023-05-19T05:10:03;12.30;;;4.63;;
4986;SDS011;12674;51.500;7.552;2023-05-19T05:12:08;8.93;;;4.80;;
4986;SDS011;12674;51.500;7.552;2023-05-19T05:14:15;13.43;;;4.47;;
4986;SDS011;12674;51.500;7.552;2023-05-19T05:16:22;20.13;;;4.30;;
4986;SDS011;12674;51.500;7.552;2023-05-19T05:18:32;10.30;;;3.60;;
4986;SDS011;12674;51.500;7.552;2023-05-19T05:20:42;13.67;;;4.33;;
4986;SDS011;12674;51.500;7.552;2023-05-19T05:22:48;12.73;;;4.50;;
4986;SDS011;12674;51.500;7.552;2023-05-19T05:24:52;10.37;;;4.40;;
4986;SDS011;12674;51.500;7.552;2023-05-19T05:26:58;8.95;;;4.28;;
4986;SDS011;12674;51.500;7.552;2023-05-19T05:29:06;13.57;;;3.70;;
4986;SDS011;12674;51.500;7.552;2023-05-19T05:31:13;9.77;;;3.95;;
4986;SDS011;12674;51.500;7.552;2023-05-19T05:33:31;14.00;;;4.93;;
4986;SDS011;12674;51.500;7.552;2023-05-19T05:35:36;7.50;;;3.72;;
4986;SDS011;12674;51.500;7.552;2023-05-19T05:37:49;9.48;;;3.95;;
4986;SDS011;12674;51.500;7.552;2023-05-19T05:39:53;14.20;;;4.80;;
4986;SDS011;12674;51.500;7.552;2023-05-19T05:41:58;10.73;;;3.97;;
4986;SDS011;12674;51.500;7.552;2023-05-19T05:44:02;15.32;;;3.97;;
4986;SDS011;12674;51.500;7.552;2023-05-19T05:46:06;13.55;;;3.97;;
4986;SDS011;12674;51.500;7.552;2023-05-19T05:48:10;9.73;;;3.63;;
4986;SDS011;12674;51.500;7.552;2023-05-19T05:50:15;8.57;;;3.30;;
4986;SDS011;12674;51.500;7.552;2023-05-19T05:52:21;6.68;;;3.38;;
4986;SDS011;12674;51.500;7.552;2023-05-19T05:54:32;7.85;;;3.75;;
4986;SDS011;12674;51.500;7.552;2023-05-19T05:56:35;9.48;;;3.55;;
4986;SDS011;12674;51.500;7.552;2023-05-19T05:58:42;14.63;;;4.20;;
4986;SDS011;12674;51.500;7.552;2023-05-19T06:00:45;9.48;;;3.75;;
4986;SDS011;12674;51.500;7.552;2023-05-19T06:02:50;11.40;;;4.18;;
4986;SDS011;12674;51.500;7.552;2023-05-19T06:04:54;8.50;;;3.38;;
4986;SDS011;12674;51.500;7.552;2023-05-19T06:06:57;13.95;;;3.70;;
4986;SDS011;12674;51.500;7.552;2023-05-19T06:09:06;9.40;;;3.70;;
4986;SDS011;12674;51.500;7.552;2023-05-19T06:11:10;6.97;;;3.58;;
4986;SDS011;12674;51.500;7.552;2023-05-19T06:13:14;7.25;;;3.03;;
4986;SDS011;12674;51.500;7.552;2023-05-19T06:15:22;12.30;;;3.88;;
4986;SDS011;12674;51.500;7.552;2023-05-19T06:17:44;9.60;;;3.70;;
4986;SDS011;12674;51.500;7.552;2023-05-19T06:19:48;11.45;;;3.78;;
4986;SDS011;12674;51.500;7.552;2023-05-19T06:21:51;15.43;;;3.45;;
4986;SDS011;12674;51.500;7.552;2023-05-19T06:23:54;9.48;;;3.22;;
4986;SDS011;12674;51.500;7.552;2023-05-19T06:25:57;7.90;;;3.28;;
4986;SDS011;12674;51.500;7.552;2023-05-19T06:28:02;9.80;;;3.85;;
4986;SDS011;12674;51.500;7.552;2023-05-19T06:30:07;13.25;;;3.00;;
4986;SDS011;12674;51.500;7.552;2023-05-19T06:32:21;8.77;;;3.63;;
4986;SDS011;12674;51.500;7.552;2023-05-19T06:34:25;11.82;;;3.97;;
4986;SDS011;12674;51.500;7.552;2023-05-19T06:36:28;8.32;;;3.95;;
4986;SDS011;12674;51.500;7.552;2023-05-19T06:38:32;14.57;;;3.58;;
4986;SDS011;12674;51.500;7.552;2023-05-19T06:40:36;10.00;;;3.03;;
4986;SDS011;12674;51.500;7.552;2023-05-19T06:42:39;11.30;;;3.78;;
4986;SDS011;12674;51.500;7.552;2023-05-19T06:44:51;15.88;;;4.75;;
4986;SDS011;12674;51.500;7.552;2023-05-19T06:46:54;6.13;;;3.00;;
4986;SDS011;12674;51.500;7.552;2023-05-19T06:48:57;7.85;;;3.30;;
4986;SDS011;12674;51.500;7.552;2023-05-19T06:51:05;7.93;;;2.90;;
4986;SDS011;12674;51.500;7.552;2023-05-19T06:53:15;10.27;;;3.00;;
4986;SDS011;12674;51.500;7.552;2023-05-19T06:55:18;7.80;;;3.00;;
4986;SDS011;12674;51.500;7.552;2023-05-19T06:57:24;10.85;;;3.10;;
4986;SDS011;12674;51.500;7.552;2023-05-19T06:59:27;11.57;;;3.22;;
4986;SDS011;12674;51.500;7.552;2023-05-19T07:01:32;8.52;;;3.03;;
4986;SDS011;12674;51.500;7.552;2023-05-19T07:03:36;6.63;;;2.55;;
4986;SDS011;12674;51.500;7.552;2023-05-19T07:05:44;9.35;;;2.97;;
4986;SDS011;12674;51.500;7.552;2023-05-19T07:07:48;6.95;;;2.95;;
4986;SDS011;12674;51.500;7.552;2023-05-19T07:09:55;8.10;;;3.50;;
4986;SDS011;12674;51.500;7.552;2023-05-19T07:12:00;11.90;;;3.45;;
4986;SDS011;12674;51.500;7.552;2023-05-19T07:14:04;8.77;;;2.88;;
4986;SDS011;12674;51.500;7.552;2023-05-19T07:16:10;10.73;;;2.85;;
4986;SDS011;12674;51.500;7.552;2023-05-19T07:18:14;8.43;;;3.65;;
4986;SDS011;12674;51.500;7.552;2023-05-19T07:20:18;13.20;;;3.92;;
4986;SDS011;12674;51.500;7.552;2023-05-19T07:22:21;8.52;;;2.60;;
4986;SDS011;12674;51.500;7.552;2023-05-19T07:24:25;10.27;;;3.08;;
4986;SDS011;12674;51.500;7.552;2023-05-19T07:26:28;9.02;;;2.25;;
4986;SDS011;12674;51.500;7.552;2023-05-19T07:28:31;6.72;;;2.65;;
4986;SDS011;12674;51.500;7.552;2023-05-19T07:30:36;11.57;;;3.40;;
4986;SDS011;12674;51.500;7.552;2023-05-19T07:32:39;9.82;;;3.50;;
4986;SDS011;12674;51.500;7.552;2023-05-19T07:34:44;11.32;;;3.53;;
4986;SDS011;12674;51.500;7.552;2023-05-19T07:36:47;9.98;;;3.17;;
4986;SDS011;12674;51.500;7.552;2023-05-19T07:38:50;13.32;;;3.63;;
4986;SDS011;12674;51.500;7.552;2023-05-19T07:40:54;14.07;;;3.15;;
4986;SDS011;12674;51.500;7.552;2023-05-19T07:42:57;10.05;;;3.15;;
4986;SDS011;12674;51.500;7.552;2023-05-19T07:45:00;9.98;;;3.70;;
4986;SDS011;12674;51.500;7.552;2023-05-19T07:47:04;9.85;;;2.97;;
4986;SDS011;12674;51.500;7.552;2023-05-19T07:49:07;8.82;;;2.42;;
4986;SDS011;12674;51.500;7.552;2023-05-19T07:51:12;8.30;;;2.90;;
4986;SDS011;12674;51.500;7.552;2023-05-19T07:53:16;6.50;;;2.47;;
4986;SDS011;12674;51.500;7.552;2023-05-19T07:55:19;10.20;;;3.13;;
4986;SDS011;12674;51.500;7.552;2023-05-19T07:57:23;6.93;;;2.50;;
4986;SDS011;12674;51.500;7.552;2023-05-19T07:59:27;7.05;;;2.28;;
4986;SDS011;12674;51.500;7.552;2023-05-19T08:01:30;9.52;;;2.38;;
4986;SDS011;12674;51.500;7.552;2023-05-19T08:03:33;14.02;;;3.22;;
4986;SDS011;12674;51.500;7.552;2023-05-19T08:05:37;7.30;;;2.70;;
4986;SDS011;12674;51.500;7.552;2023-05-19T08:07:42;11.05;;;2.40;;
4986;SDS011;12674;51.500;7.552;2023-05-19T08:09:45;6.35;;;2.78;;
4986;SDS011;12674;51.500;7.552;2023-05-19T08:11:48;9.50;;;3.00;;
4986;SDS011;12674;51.500;7.552;2023-05-19T08:13:51;10.23;;;2.70;;
4986;SDS011;12674;51.500;7.552;2023-05-19T08:15:54;12.40;;;2.92;;
4986;SDS011;12674;51.500;7.552;2023-05-19T08:18:00;11.18;;;2.75;;
4986;SDS011;12674;51.500;7.552;2023-05-19T08:20:04;6.97;;;2.33;;
4986;SDS011;12674;51.500;7.552;2023-05-19T08:22:09;7.90;;;2.28;;
4986;SDS011;12674;51.500;7.552;2023-05-19T08:24:13;6.43;;;2.30;;
4986;SDS011;12674;51.500;7.552;2023-05-19T08:26:16;17.80;;;2.70;;
4986;SDS011;12674;51.500;7.552;2023-05-19T08:28:20;9.27;;;2.58;;
4986;SDS011;12674;51.500;7.552;2023-05-19T08:30:24;9.23;;;2.42;;
4986;SDS011;12674;51.500;7.552;2023-05-19T08:32:27;12.82;;;2.03;;
4986;SDS011;12674;51.500;7.552;2023-05-19T08:34:30;10.13;;;3.00;;
4986;SDS011;12674;51.500;7.552;2023-05-19T08:36:34;8.10;;;2.10;;
4986;SDS011;12674;51.500;7.552;2023-05-19T08:38:37;8.05;;;2.17;;
4986;SDS011;12674;51.500;7.552;2023-05-19T08:40:41;11.25;;;2.75;;
4986;SDS011;12674;51.500;7.552;2023-05-19T08:42:44;10.10;;;2.70;;
4986;SDS011;12674;51.500;7.552;2023-05-19T08:44:48;11.98;;;3.15;;
4986;SDS011;12674;51.500;7.552;2023-05-19T08:46:52;12.18;;;3.08;;
4986;SDS011;12674;51.500;7.552;2023-05-19T08:48:57;8.38;;;2.40;;
4986;SDS011;12674;51.500;7.552;2023-05-19T08:51:05;8.65;;;2.70;;
4986;SDS011;12674;51.500;7.552;2023-05-19T08:53:18;7.63;;;2.17;;
4986;SDS011;12674;51.500;7.552;2023-05-19T08:55:35;6.53;;;2.33;;
4986;SDS011;12674;51.500;7.552;2023-05-19T08:57:42;6.80;;;2.45;;
4986;SDS011;12674;51.500;7.552;2023-05-19T08:59:46;12.55;;;2.58;;
4986;SDS011;12674;51.500;7.552;2023-05-19T09:01:50;6.85;;;2.55;;
4986;SDS011;12674;51.500;7.552;2023-05-19T09:03:54;8.52;;;2.55;;
4986;SDS011;12674;51.500;7.552;2023-05-19T09:05:57;10.48;;;2.42;;
4986;SDS011;12674;51.500;7.552;2023-05-19T09:08:01;6.10;;;2.33;;
4986;SDS011;12674;51.500;7.552;2023-05-19T09:10:05;7.28;;;2.30;;
4986;SDS011;12674;51.500;7.552;2023-05-19T09:12:09;8.13;;;2.50;;
4986;SDS011;12674;51.500;7.552;2023-05-19T09:14:14;4.80;;;1.92;;
4986;SDS011;12674;51.500;7.552;2023-05-19T09:16:17;11.55;;;2.70;;
4986;SDS011;12674;51.500;7.552;2023-05-19T09:18:20;10.15;;;2.28;;
4986;SDS011;12674;51.500;7.552;2023-05-19T09:20:23;8.82;;;2.85;;
4986;SDS011;12674;51.500;7.552;2023-05-19T09:22:26;13.27;;;2.78;;
4986;SDS011;12674;51.500;7.552;2023-05-19T09:24:30;5.75;;;1.80;;
4986;SDS011;12674;51.500;7.552;2023-05-19T09:26:35;9.75;;;2.13;;
4986;SDS011;12674;51.500;7.552;2023-05-19T09:28:40;12.10;;;2.45;;
4986;SDS011;12674;51.500;7.552;2023-05-19T09:30:44;6.28;;;2.08;;
4986;SDS011;12674;51.500;7.552;2023-05-19T09:32:47;8.70;;;1.73;;
4986;SDS011;12674;51.500;7.552;2023-05-19T09:34:51;7.75;;;2.15;;
4986;SDS011;12674;51.500;7.552;2023-05-19T09:36:54;8.93;;;2.47;;
4986;SDS011;12674;51.500;7.552;2023-05-19T09:38:58;7.38;;;1.75;;
4986;SDS011;12674;51.500;7.552;2023-05-19T09:41:03;12.63;;;2.45;;
4986;SDS011;12674;51.500;7.552;2023-05-19T09:43:07;7.43;;;2.30;;
4986;SDS011;12674;51.500;7.552;2023-05-19T09:45:10;10.95;;;2.05;;
4986;SDS011;12674;51.500;7.552;2023-05-19T09:47:14;7.38;;;1.73;;
4986;SDS011;12674;51.500;7.552;2023-05-19T09:49:19;5.43;;;2.25;;
4986;SDS011;12674;51.500;7.552;2023-05-19T09:51:23;5.50;;;2.20;;
4986;SDS011;12674;51.500;7.552;2023-05-19T09:53:26;6.20;;;2.10;;
4986;SDS011;12674;51.500;7.552;2023-05-19T09:55:31;4.63;;;1.98;;
4986;SDS011;12674;51.500;7.552;2023-05-19T09:57:36;3.80;;;1.80;;
4986;SDS011;12674;51.500;7.552;2023-05-19T09:59:40;3.55;;;1.60;;
4986;SDS011;12674;51.500;7.552;2023-05-19T10:01:44;9.30;;;2.20;;
4986;SDS011;12674;51.500;7.552;2023-05-19T10:03:49;7.60;;;1.95;;
4986;SDS011;12674;51.500;7.552;2023-05-19T10:05:52;8.95;;;1.95;;
4986;SDS011;12674;51.500;7.552;2023-05-19T10:07:55;7.68;;;2.58;;
4986;SDS011;12674;51.500;7.552;2023-05-19T10:09:59;5.88;;;1.75;;
4986;SDS011;12674;51.500;7.552;2023-05-19T10:12:04;11.18;;;2.20;;
4986;SDS011;12674;51.500;7.552;2023-05-19T10:14:09;6.25;;;1.88;;
4986;SDS011;12674;51.500;7.552;2023-05-19T10:16:14;10.25;;;2.45;;
4986;SDS011;12674;51.500;7.552;2023-05-19T10:18:17;4.38;;;1.80;;
4986;SDS011;12674;51.500;7.552;2023-05-19T10:20:22;11.35;;;2.17;;
4986;SDS011;12674;51.500;7.552;2023-05-19T10:22:25;4.32;;;1.77;;
4986;SDS011;12674;51.500;7.552;2023-05-19T10:24:29;10.80;;;3.00;;
4986;SDS011;12674;51.500;7.552;2023-05-19T10:26:33;9.27;;;2.45;;
4986;SDS011;12674;51.500;7.552;2023-05-19T10:28:37;8.15;;;2.50;;
4986;SDS011;12674;51.500;7.552;2023-05-19T10:30:41;8.15;;;2.50;;
4986;SDS011;12674;51.500;7.552;2023-05-19T10:32:46;9.52;;;2.92;;
4986;SDS011;12674;51.500;7.552;2023-05-19T10:34:57;4.60;;;1.80;;
4986;SDS011;12674;51.500;7.552;2023-05-19T10:37:16;6.57;;;2.13;;
4986;SDS011;12674;51.500;7.552;2023-05-19T10:39:24;8.27;;;2.50;;
4986;SDS011;12674;51.500;7.552;2023-05-19T10:41:30;11.85;;;2.15;;
4986;SDS011;12674;51.500;7.552;2023-05-19T10:43:43;7.25;;;2.20;;
4986;SDS011;12674;51.500;7.552;2023-05-19T10:45:50;6.00;;;2.30;;
4986;SDS011;12674;51.500;7.552;2023-05-19T10:47:55;7.20;;;2.22;;
4986;SDS011;12674;51.500;7.552;2023-05-19T10:49:59;10.63;;;2.65;;
4986;SDS011;12674;51.500;7.552;2023-05-19T10:52:02;4.68;;;1.65;;
4986;SDS011;12674;51.500;7.552;2023-05-19T10:54:07;5.78;;;2.08;;
4986;SDS011;12674;51.500;7.552;2023-05-19T10:56:26;10.85;;;2.40;;
4986;SDS011;12674;51.500;7.552;2023-05-19T10:58:36;11.27;;;2.28;;
4986;SDS011;12674;51.500;7.552;2023-05-19T11:00:51;5.20;;;2.08;;
4986;SDS011;12674;51.500;7.552;2023-05-19T11:03:11;7.80;;;1.80;;
4986;SDS011;12674;51.500;7.552;2023-05-19T11:05:16;6.80;;;2.60;;
4986;SDS011;12674;51.500;7.552;2023-05-19T11:07:20;9.55;;;2.25;;
4986;SDS011;12674;51.500;7.552;2023-05-19T11:09:32;8.30;;;1.90;;
4986;SDS011;12674;51.500;7.552;2023-05-19T11:11:43;4.20;;;2.00;;
4986;SDS011;12674;51.500;7.552;2023-05-19T11:13:49;8.10;;;2.53;;
4986;SDS011;12674;51.500;7.552;2023-05-19T11:15:53;5.00;;;2.08;;
4986;SDS011;12674;51.500;7.552;2023-05-19T11:17:57;13.57;;;2.30;;
4986;SDS011;12674;51.500;7.552;2023-05-19T11:20:03;6.80;;;2.35;;
4986;SDS011;12674;51.500;7.552;2023-05-19T11:22:10;8.10;;;2.05;;
4986;SDS011;12674;51.500;7.552;2023-05-19T11:24:34;7.32;;;1.88;;
4986;SDS011;12674;51.500;7.552;2023-05-19T11:26:38;10.27;;;2.22;;
4986;SDS011;12674;51.500;7.552;2023-05-19T11:28:43;5.63;;;2.00;;
4986;SDS011;12674;51.500;7.552;2023-05-19T11:30:48;6.80;;;1.83;;
4986;SDS011;12674;51.500;7.552;2023-05-19T11:32:53;7.43;;;2.00;;
4986;SDS011;12674;51.500;7.552;2023-05-19T11:34:56;9.43;;;2.05;;
4986;SDS011;12674;51.500;7.552;2023-05-19T11:36:59;8.20;;;2.50;;
4986;SDS011;12674;51.500;7.552;2023-05-19T11:39:03;8.45;;;1.77;;
4986;SDS011;12674;51.500;7.552;2023-05-19T11:41:10;5.95;;;1.92;;
4986;SDS011;12674;51.500;7.552;2023-05-19T11:43:13;5.32;;;1.92;;
4986;SDS011;12674;51.500;7.552;2023-05-19T11:45:22;8.43;;;1.95;;
4986;SDS011;12674;51.500;7.552;2023-05-19T11:47:27;9.43;;;2.03;;
4986;SDS011;12674;51.500;7.552;2023-05-19T11:49:44;14.20;;;2.78;;
4986;SDS011;12674;51.500;7.552;2023-05-19T11:51:48;10.85;;;2.28;;
4986;SDS011;12674;51.500;7.552;2023-05-19T11:53:51;6.38;;;2.33;;
4986;SDS011;12674;51.500;7.552;2023-05-19T11:55:55;4.70;;;1.70;;
4986;SDS011;12674;51.500;7.552;2023-05-19T11:57:59;5.35;;;1.80;;
4986;SDS011;12674;51.500;7.552;2023-05-19T12:00:07;14.73;;;2.67;;
4986;SDS011;12674;51.500;7.552;2023-05-19T12:02:16;6.15;;;2.10;;
4986;SDS011;12674;51.500;7.552;2023-05-19T12:04:21;6.70;;;1.55;;
4986;SDS011;12674;51.500;7.552;2023-05-19T12:06:24;6.85;;;2.22;;
4986;SDS011;12674;51.500;7.552;2023-05-19T12:08:28;5.55;;;1.58;;
4986;SDS011;12674;51.500;7.552;2023-05-19T12:10:32;8.27;;;1.40;;
4986;SDS011;12674;51.500;7.552;2023-05-19T12:12:39;5.82;;;2.10;;
4986;SDS011;12674;51.500;7.552;2023-05-19T12:14:52;5.57;;;1.88;;
4986;SDS011;12674;51.500;7.552;2023-05-19T12:17:13;5.60;;;1.88;;
4986;SDS011;12674;51.500;7.552;2023-05-19T12:19:25;6.20;;;1.98;;
4986;SDS011;12674;51.500;7.552;2023-05-19T12:21:32;6.53;;;1.90;;
4986;SDS011;12674;51.500;7.552;2023-05-19T12:23:36;2.65;;;1.63;;
4986;SDS011;12674;51.500;7.552;2023-05-19T12:25:42;4.65;;;2.10;;
4986;SDS011;12674;51.500;7.552;2023-05-19T12:27:48;5.03;;;2.10;;
4986;SDS011;12674;51.500;7.552;2023-05-19T12:29:58;5.57;;;1.80;;
4986;SDS011;12674;51.500;7.552;2023-05-19T12:32:02;4.72;;;1.70;;
4986;SDS011;12674;51.500;7.552;2023-05-19T12:34:06;4.80;;;1.90;;
4986;SDS011;12674;51.500;7.552;2023-05-19T12:36:10;6.85;;;2.22;;
4986;SDS011;12674;51.500;7.552;2023-05-19T12:38:14;4.90;;;1.50;;
4986;SDS011;12674;51.500;7.552;2023-05-19T12:40:19;4.68;;;1.70;;
4986;SDS011;12674;51.500;7.552;2023-05-19T12:42:24;6.93;;;1.92;;
4986;SDS011;12674;51.500;7.552;2023-05-19T12:44:31;6.15;;;2.28;;
4986;SDS011;12674;51.500;7.552;2023-05-19T12:46:40;9.60;;;2.72;;
4986;SDS011;12674;51.500;7.552;2023-05-19T12:48:44;3.70;;;1.67;;
4986;SDS011;12674;51.500;7.552;2023-05-19T12:50:49;6.07;;;1.77;;